Time;durP1;ratioP1;P1;durP2;ratioP2;P2;SDS_P1;SDS_P2;PMS_P1;PMS_P2;Temp;Humidity;BMP_temperature;BMP_pressure;BME280_temperature;BME280_humidity;BME280_pressure;Samples;Min_cycle;Max_cycle;Signal;HPM_P1;HPM_P2
2021/05/09 00:00:32;;;;;;;2.33;1.63;;;;;;;;;;4953561;29;20653;-77
2021/05/09 00:02:58;;;;;;;1.77;1.67;;;;;;;;;;4951835;29;20573;-76
2021/05/09 00:08:27;;;;;;;2.23;2.03;;;;;;;;;;4953083;28;20839;-77
2021/05/09 00:10:53;;;;;;;5.33;2.10;;;;;;;;;;4953012;29;20439;-76
2021/05/09 00:13:19;;;;;;;2.47;2.13;;;;;;;;;;4953438;29;20485;-77
2021/05/09 00:15:48;;;;;;;2.40;2.20;;;;;;;;;;4955331;29;20429;-75
2021/05/09 00:18:14;;;;;;;2.87;2.10;;;;;;;;;;4962075;29;20593;-76
2021/05/09 00:20:40;;;;;;;2.30;1.77;;;;;;;;;;4953459;29;20420;-76
2021/05/09 00:23:06;;;;;;;3.20;2.67;;;;;;;;;;4952751;29;21107;-76
2021/05/09 00:25:32;;;;;;;3.40;2.60;;;;;;;;;;4952132;29;20504;-77
2021/05/09 00:27:58;;;;;;;2.87;2.30;;;;;;;;;;4952905;29;20511;-75
2021/05/09 00:30:24;;;;;;;3.47;3.00;;;;;;;;;;4951494;29;20408;-76
2021/05/09 00:32:50;;;;;;;5.60;2.50;;;;;;;;;;4952404;29;20434;-76
2021/05/09 00:38:20;;;;;;;4.27;2.30;;;;;;;;;;4951346;29;20562;-76
2021/05/09 00:40:46;;;;;;;3.90;2.87;;;;;;;;;;4952237;29;20429;-75
2021/05/09 00:43:12;;;;;;;2.30;2.00;;;;;;;;;;4952443;29;20430;-76
2021/05/09 00:45:38;;;;;;;2.90;2.40;;;;;;;;;;4951683;29;20426;-77
2021/05/09 00:48:04;;;;;;;2.50;2.30;;;;;;;;;;4952524;29;20546;-76
2021/05/09 00:53:34;;;;;;;2.53;2.03;;;;;;;;;;4952317;29;20838;-76
2021/05/09 00:56:01;;;;;;;2.27;2.03;;;;;;;;;;4951137;28;20419;-76
2021/05/09 00:58:28;;;;;;;2.40;2.20;;;;;;;;;;4952415;29;20478;-76
2021/05/09 01:00:54;;;;;;;2.60;2.40;;;;;;;;;;4952398;29;20752;-76
2021/05/09 01:03:26;;;;;;;2.07;1.80;;;;;;;;;;4952108;29;20430;-76
2021/05/09 01:08:56;;;;;;;2.63;1.77;;;;;;;;;;4952038;29;20477;-76
2021/05/09 01:11:22;;;;;;;1.87;1.50;;;;;;;;;;4951810;29;21058;-77
2021/05/09 01:13:50;;;;;;;2.23;2.03;;;;;;;;;;4950479;29;20423;-76
2021/05/09 01:16:16;;;;;;;2.40;2.00;;;;;;;;;;4952301;29;20427;-77
2021/05/09 01:18:42;;;;;;;1.97;1.60;;;;;;;;;;4951921;29;20484;-76
2021/05/09 01:24:11;;;;;;;1.80;1.70;;;;;;;;;;4951112;29;20418;-76
2021/05/09 01:26:37;;;;;;;2.90;1.27;;;;;;;;;;4952308;29;20411;-76
2021/05/09 01:29:04;;;;;;;2.90;1.63;;;;;;;;;;4952101;29;20505;-75
2021/05/09 01:31:30;;;;;;;2.03;1.93;;;;;;;;;;4952513;29;20419;-75
2021/05/09 01:33:56;;;;;;;2.27;2.07;;;;;;;;;;4951443;29;20427;-77
2021/05/09 01:36:22;;;;;;;2.70;2.30;;;;;;;;;;4952031;29;20420;-77
2021/05/09 01:38:48;;;;;;;5.57;2.00;;;;;;;;;;4951519;29;20475;-77
2021/05/09 01:41:14;;;;;;;2.27;2.03;;;;;;;;;;4952157;29;20498;-76
2021/05/09 01:43:40;;;;;;;2.87;2.47;;;;;;;;;;4951052;29;20431;-76
2021/05/09 01:46:06;;;;;;;2.43;2.23;;;;;;;;;;4951731;29;20740;-76
2021/05/09 01:48:32;;;;;;;2.90;2.50;;;;;;;;;;4951872;29;20917;-77
2021/05/09 01:54:01;;;;;;;3.80;3.43;;;;;;;;;;4951268;29;20469;-77
2021/05/09 01:56:27;;;;;;;3.47;2.70;;;;;;;;;;4951711;29;20789;-77
2021/05/09 01:58:53;;;;;;;2.97;2.77;;;;;;;;;;4951637;29;20432;-76
2021/05/09 02:01:19;;;;;;;3.30;2.80;;;;;;;;;;4951456;29;20423;-77
2021/05/09 02:03:45;;;;;;;5.00;3.80;;;;;;;;;;4950870;29;20451;-75
2021/05/09 02:09:15;;;;;;;3.47;3.17;;;;;;;;;;4955238;29;20837;-75
2021/05/09 02:11:41;;;;;;;4.10;2.80;;;;;;;;;;4954872;29;20424;-77
2021/05/09 02:14:08;;;;;;;3.67;3.30;;;;;;;;;;4955161;29;20430;-77
2021/05/09 02:16:34;;;;;;;4.20;3.20;;;;;;;;;;4953870;29;20438;-77
2021/05/09 02:19:00;;;;;;;3.03;2.83;;;;;;;;;;4955201;29;20427;-77
2021/05/09 02:24:30;;;;;;;3.07;2.73;;;;;;;;;;4955003;29;20814;-77
2021/05/09 02:26:55;;;;;;;7.17;3.17;;;;;;;;;;4954176;29;20411;-76
2021/05/09 02:29:22;;;;;;;3.70;3.40;;;;;;;;;;4955025;29;20889;-77
2021/05/09 02:31:48;;;;;;;3.03;2.83;;;;;;;;;;4955049;29;20481;-77
2021/05/09 02:34:14;;;;;;;3.60;2.93;;;;;;;;;;4955321;29;20460;-76
2021/05/09 02:39:45;;;;;;;3.60;2.30;;;;;;;;;;4954779;29;20437;-76
2021/05/09 02:42:11;;;;;;;2.97;2.67;;;;;;;;;;4954523;29;20466;-76
2021/05/09 02:44:37;;;;;;;3.93;3.07;;;;;;;;;;4954590;29;20470;-76
2021/05/09 02:47:03;;;;;;;3.53;3.23;;;;;;;;;;4954718;29;20738;-76
2021/05/09 02:49:29;;;;;;;5.60;2.63;;;;;;;;;;4953713;29;20419;-74
2021/05/09 02:54:59;;;;;;;3.73;2.93;;;;;;;;;;4954017;29;20783;-76
2021/05/09 02:57:25;;;;;;;2.90;2.70;;;;;;;;;;4953820;29;20462;-76
2021/05/09 02:59:50;;;;;;;4.07;3.00;;;;;;;;;;4954005;29;20477;-76
2021/05/09 03:02:16;;;;;;;2.80;2.37;;;;;;;;;;4953057;29;20927;-77
2021/05/09 03:10:32;;;;;;;2.30;2.10;;;;;;;;;;4953937;29;20434;-77
2021/05/09 03:12:58;;;;;;;2.80;2.40;;;;;;;;;;4954420;29;20422;-77
2021/05/09 03:15:24;;;;;;;4.10;2.90;;;;;;;;;;4954537;29;20415;-77
2021/05/09 03:17:50;;;;;;;2.87;2.67;;;;;;;;;;4953843;29;20818;-76
2021/05/09 03:20:16;;;;;;;3.00;2.50;;;;;;;;;;4953122;28;20431;-78
2021/05/09 03:22:42;;;;;;;2.97;2.50;;;;;;;;;;4953883;29;20451;-75
2021/05/09 03:25:09;;;;;;;2.10;1.90;;;;;;;;;;4953674;29;20509;-75
2021/05/09 03:27:35;;;;;;;4.60;1.97;;;;;;;;;;4952843;29;20419;-76
2021/05/09 03:30:01;;;;;;;2.70;2.50;;;;;;;;;;4953793;29;20436;-76
2021/05/09 03:32:28;;;;;;;2.53;1.90;;;;;;;;;;4953303;29;20416;-77
2021/05/09 03:34:54;;;;;;;2.40;2.20;;;;;;;;;;4953571;29;21065;-76
2021/05/09 03:40:23;;;;;;;3.10;2.90;;;;;;;;;;4954005;29;20526;-77
2021/05/09 03:42:49;;;;;;;1.73;1.63;;;;;;;;;;4958571;29;20446;-75
2021/05/09 03:45:15;;;;;;;2.47;2.27;;;;;;;;;;4958916;29;20488;-76
2021/05/09 03:47:41;;;;;;;4.77;2.27;;;;;;;;;;4953972;29;20434;-76
2021/05/09 03:55:55;;;;;;;2.83;2.57;;;;;;;;;;4953462;29;20418;-76
2021/05/09 03:58:21;;;;;;;3.03;2.80;;;;;;;;;;4953273;29;20474;-75
2021/05/09 04:00:47;;;;;;;4.53;2.50;;;;;;;;;;4953147;29;20483;-75
2021/05/09 04:03:33;;;;;;;3.27;2.70;;;;;;;;;;4952823;29;20906;-75
2021/05/09 04:05:59;;;;;;;3.03;2.83;;;;;;;;;;4952669;29;20498;-76
2021/05/09 04:08:28;;;;;;;3.07;2.77;;;;;;;;;;4952843;29;20497;-76
2021/05/09 04:10:55;;;;;;;2.80;2.57;;;;;;;;;;4953261;29;20426;-76
2021/05/09 04:13:22;;;;;;;3.17;2.00;;;;;;;;;;4953275;29;20763;-76
2021/05/09 04:15:48;;;;;;;3.83;2.17;;;;;;;;;;4953261;29;21041;-77
2021/05/09 04:18:14;;;;;;;2.70;2.50;;;;;;;;;;4951453;29;20498;-77
2021/05/09 04:20:41;;;;;;;6.67;2.40;;;;;;;;;;4952901;29;20422;-76
2021/05/09 04:23:17;;;;;;;2.37;2.17;;;;;;;;;;4951309;29;20875;-76
2021/05/09 04:25:47;;;;;;;4.00;2.43;;;;;;;;;;4952919;29;20423;-76
2021/05/09 04:28:14;;;;;;;4.20;3.20;;;;;;;;;;4952910;29;20437;-77
2021/05/09 04:30:40;;;;;;;2.87;2.67;;;;;;;;;;4952240;28;20571;-77
2021/05/09 04:33:07;;;;;;;2.47;2.27;;;;;;;;;;4953239;29;20439;-78
2021/05/09 04:35:34;;;;;;;4.17;2.43;;;;;;;;;;4953093;29;21029;-76
2021/05/09 04:41:04;;;;;;;2.63;2.43;;;;;;;;;;4952823;29;20434;-76
2021/05/09 04:43:30;;;;;;;2.40;2.20;;;;;;;;;;4952506;29;20419;-76
2021/05/09 04:45:57;;;;;;;4.53;2.73;;;;;;;;;;4952860;29;20502;-77
2021/05/09 04:48:23;;;;;;;4.00;2.50;;;;;;;;;;4952482;29;20415;-77
2021/05/09 04:50:49;;;;;;;2.97;2.57;;;;;;;;;;4951640;29;20592;-77
2021/05/09 04:53:38;;;;;;;2.13;2.03;;;;;;;;;;4952143;29;20886;-76
2021/05/09 04:56:09;;;;;;;2.60;2.10;;;;;;;;;;4949587;29;20458;-75
2021/05/09 04:58:39;;;;;;;2.97;2.53;;;;;;;;;;4952576;29;20486;-76
2021/05/09 05:01:07;;;;;;;3.67;2.60;;;;;;;;;;4952735;29;20407;-76
2021/05/09 05:03:33;;;;;;;3.10;2.70;;;;;;;;;;4951938;29;20898;-76
2021/05/09 05:05:59;;;;;;;2.20;2.00;;;;;;;;;;4950304;29;20428;-75
2021/05/09 05:08:25;;;;;;;5.67;2.63;;;;;;;;;;4951369;28;20958;-75
2021/05/09 05:10:51;;;;;;;2.63;2.43;;;;;;;;;;4951930;29;20455;-76
2021/05/09 05:13:20;;;;;;;3.63;2.57;;;;;;;;;;4952062;29;20426;-76
2021/05/09 05:15:47;;;;;;;3.30;3.00;;;;;;;;;;4952125;29;20455;-76
2021/05/09 05:18:13;;;;;;;3.43;2.53;;;;;;;;;;4949979;29;20483;-75
2021/05/09 05:20:39;;;;;;;3.30;3.00;;;;;;;;;;4952048;29;20427;-76
2021/05/09 05:26:09;;;;;;;2.47;2.27;;;;;;;;;;4952233;29;20518;-78
2021/05/09 05:28:35;;;;;;;5.00;3.30;;;;;;;;;;4952241;29;20447;-76
2021/05/09 05:31:01;;;;;;;3.27;2.93;;;;;;;;;;4951082;29;20726;-76
2021/05/09 05:33:27;;;;;;;3.00;2.70;;;;;;;;;;4952505;29;20892;-77
2021/05/09 05:35:53;;;;;;;3.70;2.80;;;;;;;;;;4952465;29;20437;-75
2021/05/09 05:41:23;;;;;;;2.80;2.40;;;;;;;;;;4953812;28;20442;-76
2021/05/09 05:43:49;;;;;;;4.07;2.93;;;;;;;;;;4956176;29;20407;-76
2021/05/09 05:46:15;;;;;;;2.50;2.30;;;;;;;;;;4956626;29;20450;-76
2021/05/09 05:48:41;;;;;;;2.73;2.30;;;;;;;;;;4956322;29;20426;-76
2021/05/09 05:51:08;;;;;;;2.27;2.00;;;;;;;;;;4956703;29;20471;-77
2021/05/09 05:56:38;;;;;;;4.13;2.63;;;;;;;;;;4955598;29;20530;-76
2021/05/09 05:59:04;;;;;;;3.90;3.10;;;;;;;;;;4956822;29;20423;-75
2021/05/09 06:01:30;;;;;;;3.30;2.97;;;;;;;;;;4956644;29;20467;-76
2021/05/09 06:03:56;;;;;;;4.00;3.10;;;;;;;;;;4956335;29;20801;-76
2021/05/09 06:06:22;;;;;;;4.93;2.97;;;;;;;;;;4954532;29;20423;-77
2021/05/09 06:08:51;;;;;;;4.13;3.10;;;;;;;;;;4955382;28;20482;-77
2021/05/09 06:11:17;;;;;;;4.00;2.97;;;;;;;;;;4956261;29;20569;-77
2021/05/09 06:13:43;;;;;;;3.77;3.33;;;;;;;;;;4938378;29;20435;-77
2021/05/09 06:16:09;;;;;;;4.07;2.97;;;;;;;;;;4955251;29;20535;-76
2021/05/09 06:18:36;;;;;;;3.00;2.80;;;;;;;;;;4954941;29;20667;-77
2021/05/09 06:21:02;;;;;;;5.50;3.20;;;;;;;;;;4938393;29;20793;-76
2021/05/09 06:26:31;;;;;;;4.60;3.67;;;;;;;;;;4954778;29;20481;-78
2021/05/09 06:28:57;;;;;;;6.57;3.13;;;;;;;;;;4955375;29;20416;-77
2021/05/09 06:31:23;;;;;;;7.93;3.40;;;;;;;;;;4955093;29;20422;-78
2021/05/09 06:33:49;;;;;;;4.50;3.60;;;;;;;;;;4955293;29;20877;-77
2021/05/09 06:36:15;;;;;;;6.67;3.40;;;;;;;;;;4955062;29;20424;-77
2021/05/09 06:41:45;;;;;;;4.23;3.83;;;;;;;;;;4955008;29;20426;-78
2021/05/09 06:44:11;;;;;;;4.57;3.33;;;;;;;;;;4954888;29;20415;-76
2021/05/09 06:46:37;;;;;;;4.80;3.20;;;;;;;;;;4955190;29;20415;-76
2021/05/09 06:49:04;;;;;;;3.87;3.47;;;;;;;;;;4955355;29;20479;-76
2021/05/09 06:51:30;;;;;;;5.83;4.00;;;;;;;;;;4955138;29;20419;-75
2021/05/09 06:57:02;;;;;;;6.80;3.10;;;;;;;;;;4954685;29;20937;-77
2021/05/09 06:59:28;;;;;;;6.17;2.87;;;;;;;;;;4954835;29;20458;-77
2021/05/09 07:01:54;;;;;;;3.30;2.60;;;;;;;;;;4954932;29;20427;-78
2021/05/09 07:04:20;;;;;;;2.50;2.30;;;;;;;;;;4954355;29;20435;-75
2021/05/09 07:06:46;;;;;;;3.30;3.00;;;;;;;;;;4956832;28;20439;-76
2021/05/09 07:12:16;;;;;;;3.73;2.90;;;;;;;;;;4973975;28;20421;-76
2021/05/09 07:14:42;;;;;;;2.90;2.60;;;;;;;;;;4974232;28;20690;-77
2021/05/09 07:17:08;;;;;;;5.00;2.73;;;;;;;;;;4974278;28;20508;-76
2021/05/09 07:19:34;;;;;;;3.23;2.07;;;;;;;;;;4974740;28;20418;-77
2021/05/09 07:22:04;;;;;;;2.60;2.40;;;;;;;;;;4957591;28;20520;-77
2021/05/09 07:27:33;;;;;;;1.73;1.63;;;;;;;;;;4974578;28;20473;-77
2021/05/09 07:29:59;;;;;;;2.67;2.10;;;;;;;;;;4974488;28;20418;-77
2021/05/09 07:32:25;;;;;;;5.33;2.13;;;;;;;;;;4975031;28;20509;-75
2021/05/09 07:34:51;;;;;;;2.70;1.80;;;;;;;;;;4979009;28;20520;-77
2021/05/09 07:37:17;;;;;;;3.13;2.10;;;;;;;;;;4981923;28;20552;-77
2021/05/09 07:39:43;;;;;;;2.27;2.00;;;;;;;;;;4975399;28;20497;-78
2021/05/09 07:42:09;;;;;;;2.53;2.10;;;;;;;;;;4974455;28;20471;-78
2021/05/09 07:44:35;;;;;;;4.60;3.00;;;;;;;;;;4973988;28;20505;-78
2021/05/09 07:47:01;;;;;;;3.73;2.40;;;;;;;;;;4974203;28;20505;-76
2021/05/09 07:49:27;;;;;;;2.20;2.00;;;;;;;;;;4971757;28;20902;-78
2021/05/09 07:51:54;;;;;;;2.30;2.00;;;;;;;;;;4972760;28;20418;-76
2021/05/09 07:57:23;;;;;;;1.80;1.70;;;;;;;;;;4972361;28;20468;-78
2021/05/09 07:59:49;;;;;;;2.73;2.00;;;;;;;;;;4972117;28;20434;-78
2021/05/09 08:02:15;;;;;;;2.17;1.73;;;;;;;;;;4972397;28;20905;-77
2021/05/09 08:04:41;;;;;;;5.40;2.30;;;;;;;;;;4971889;28;20513;-78
2021/05/09 08:07:07;;;;;;;2.40;2.20;;;;;;;;;;4971744;28;20565;-78
2021/05/09 08:12:36;;;;;;;2.30;1.60;;;;;;;;;;4971956;28;20425;-77
2021/05/09 08:15:03;;;;;;;3.97;1.27;;;;;;;;;;4972065;28;20434;-78
2021/05/09 08:17:29;;;;;;;1.63;1.50;;;;;;;;;;4971921;28;20560;-77
2021/05/09 08:19:55;;;;;;;1.67;1.57;;;;;;;;;;4971706;28;20450;-79
2021/05/09 08:22:21;;;;;;;3.00;2.47;;;;;;;;;;4971212;28;20423;-78
2021/05/09 08:27:51;;;;;;;3.13;1.20;;;;;;;;;;4971877;28;20789;-77
2021/05/09 08:30:19;;;;;;;1.70;1.43;;;;;;;;;;4971834;28;20414;-75
2021/05/09 08:32:45;;;;;;;1.47;1.07;;;;;;;;;;4972650;28;20430;-77
2021/05/09 08:35:12;;;;;;;1.20;1.00;;;;;;;;;;4972119;28;20435;-77
2021/05/09 08:37:39;;;;;;;1.37;1.17;;;;;;;;;;4971656;28;20850;-77
2021/05/09 08:40:06;;;;;;;2.20;1.20;;;;;;;;;;4971981;28;20426;-77
2021/05/09 08:42:32;;;;;;;2.23;1.30;;;;;;;;;;4971566;28;20902;-76
2021/05/09 08:44:58;;;;;;;1.50;1.10;;;;;;;;;;4971230;28;20909;-77
2021/05/09 08:47:36;;;;;;;2.73;1.20;;;;;;;;;;4971487;28;20850;-77
2021/05/09 08:50:03;;;;;;;1.37;1.10;;;;;;;;;;4971626;28;20415;-77
2021/05/09 08:52:29;;;;;;;1.10;1.00;;;;;;;;;;4971360;28;20892;-77
2021/05/09 08:57:59;;;;;;;2.60;1.10;;;;;;;;;;4971034;28;20988;-77
2021/05/09 09:00:25;;;;;;;1.73;1.30;;;;;;;;;;4971118;28;20442;-77
2021/05/09 09:02:52;;;;;;;2.17;1.20;;;;;;;;;;4969730;28;20949;-77
2021/05/09 09:05:18;;;;;;;1.00;0.80;;;;;;;;;;4971047;28;20763;-78
2021/05/09 09:13:44;;;;;;;2.47;1.30;;;;;;;;;;4972019;28;20417;-77
2021/05/09 09:16:19;;;;;;;3.07;1.53;;;;;;;;;;4971818;28;20475;-78
2021/05/09 09:18:52;;;;;;;1.50;1.37;;;;;;;;;;4976041;28;20492;-77
2021/05/09 09:21:19;;;;;;;2.30;1.33;;;;;;;;;;4975756;28;20437;-75
2021/05/09 09:23:52;;;;;;;5.00;1.40;;;;;;;;;;4975428;28;20453;-76
2021/05/09 09:26:31;;;;;;;1.30;1.17;;;;;;;;;;4975760;28;20426;-77
2021/05/09 09:28:59;;;;;;;2.17;1.10;;;;;;;;;;4974547;28;20473;-90
2021/05/09 09:31:39;;;;;;;4.07;1.20;;;;;;;;;;4982451;28;20421;-84
2021/05/09 09:34:07;;;;;;;1.53;1.20;;;;;;;;;;4978938;28;20426;-88
2021/05/09 09:36:34;;;;;;;1.50;1.13;;;;;;;;;;4977400;28;20492;-90
2021/05/09 09:39:00;;;;;;;1.87;1.07;;;;;;;;;;4977179;28;20573;-77
2021/05/09 09:41:27;;;;;;;1.63;0.90;;;;;;;;;;4983288;28;20422;-88
2021/05/09 09:44:03;;;;;;;1.60;1.03;;;;;;;;;;4978655;28;20977;-91
2021/05/09 09:46:30;;;;;;;2.57;1.27;;;;;;;;;;4983271;28;20417;-92
2021/05/09 09:48:57;;;;;;;0.80;0.80;;;;;;;;;;4986310;28;20501;-89
2021/05/09 09:51:25;;;;;;;1.33;0.90;;;;;;;;;;4981274;28;20425;-88
2021/05/09 09:53:53;;;;;;;4.60;1.23;;;;;;;;;;4989925;28;20426;-83
2021/05/09 09:56:21;;;;;;;1.83;1.30;;;;;;;;;;4997207;28;20532;-90
2021/05/09 09:59:07;;;;;;;3.07;0.70;;;;;;;;;;4989471;28;20481;-85
2021/05/09 10:01:49;;;;;;;1.10;1.00;;;;;;;;;;4980312;28;20459;-91
2021/05/09 10:04:16;;;;;;;1.00;0.90;;;;;;;;;;4979770;28;20516;-88
2021/05/09 10:06:43;;;;;;;1.13;1.00;;;;;;;;;;4976629;28;20417;-89
2021/05/09 10:09:10;;;;;;;1.53;1.03;;;;;;;;;;4963068;29;20530;-80
2021/05/09 10:11:37;;;;;;;2.10;1.60;;;;;;;;;;4958588;29;20563;-88
2021/05/09 10:14:11;;;;;;;2.87;1.00;;;;;;;;;;4957759;29;20502;-87
2021/05/09 10:16:53;;;;;;;3.77;1.03;;;;;;;;;;4954264;29;20443;-77
2021/05/09 10:19:27;;;;;;;1.30;0.97;;;;;;;;;;4955763;29;20435;-77
2021/05/09 10:21:53;;;;;;;1.23;1.00;;;;;;;;;;4955791;29;20425;-78
2021/05/09 10:24:21;;;;;;;1.90;0.90;;;;;;;;;;4955519;29;20596;-78
2021/05/09 10:26:53;;;;;;;2.23;1.73;;;;;;;;;;4955922;29;20737;-77
2021/05/09 10:29:38;;;;;;;0.80;0.80;;;;;;;;;;4956003;28;20415;-76
2021/05/09 10:32:22;;;;;;;0.97;0.90;;;;;;;;;;4956156;29;20466;-76
2021/05/09 10:34:58;;;;;;;4.20;1.07;;;;;;;;;;4956396;29;20519;-77
2021/05/09 10:40:23;;;;;;;2.00;0.90;;;;;;;;;;4955758;29;20419;-76
2021/05/09 10:43:12;;;;;;;1.20;1.10;;;;;;;;;;4955824;29;20724;-77
2021/05/09 10:45:41;;;;;;;3.23;1.27;;;;;;;;;;4955525;29;20443;-76
2021/05/09 10:48:24;;;;;;;1.07;0.90;;;;;;;;;;4955145;29;20892;-76
2021/05/09 10:51:11;;;;;;;1.53;1.10;;;;;;;;;;4955304;29;20455;-77
2021/05/09 10:53:38;;;;;;;1.20;1.10;;;;;;;;;;4942317;29;20470;-78
2021/05/09 10:56:07;;;;;;;2.33;1.63;;;;;;;;;;4955326;29;20712;-76
2021/05/09 10:58:39;;;;;;;1.90;1.73;;;;;;;;;;4955334;29;20462;-76
2021/05/09 11:01:08;;;;;;;2.50;1.63;;;;;;;;;;4955424;29;20906;-77
2021/05/09 11:03:37;;;;;;;2.13;1.40;;;;;;;;;;4937799;29;20446;-77
2021/05/09 11:06:15;;;;;;;2.87;1.07;;;;;;;;;;4955271;29;20424;-77
2021/05/09 11:08:48;;;;;;;4.23;1.20;;;;;;;;;;4954901;28;20819;-77
2021/05/09 11:11:26;;;;;;;1.17;1.00;;;;;;;;;;4974458;28;20430;-76
2021/05/09 11:16:30;;;;;;;2.47;1.10;;;;;;;;;;4974873;28;20418;-78
2021/05/09 11:18:57;;;;;;;1.30;0.83;;;;;;;;;;4974592;28;20478;-77
2021/05/09 11:21:23;;;;;;;1.70;1.10;;;;;;;;;;4974164;28;20480;-77
2021/05/09 11:23:50;;;;;;;1.47;1.00;;;;;;;;;;4973932;28;20425;-76
2021/05/09 11:26:22;;;;;;;1.27;1.13;;;;;;;;;;4972768;28;20436;-77
2021/05/09 11:29:08;;;;;;;1.40;0.93;;;;;;;;;;4974065;28;20434;-78
2021/05/09 11:31:38;;;;;;;1.70;1.10;;;;;;;;;;4974200;28;20422;-77
2021/05/09 11:34:04;;;;;;;1.10;1.00;;;;;;;;;;4974180;28;20423;-78
2021/05/09 11:36:32;;;;;;;1.30;1.20;;;;;;;;;;4973874;28;20418;-75
2021/05/09 11:41:59;;;;;;;1.00;0.90;;;;;;;;;;4974028;28;20786;-76
2021/05/09 11:44:25;;;;;;;3.50;0.80;;;;;;;;;;4972483;28;20433;-77
2021/05/09 11:46:52;;;;;;;1.20;1.00;;;;;;;;;;4973978;28;20773;-77
2021/05/09 11:49:22;;;;;;;3.93;0.90;;;;;;;;;;4973770;28;20427;-76
2021/05/09 11:52:09;;;;;;;1.23;1.13;;;;;;;;;;4973814;28;20422;-76
2021/05/09 11:57:38;;;;;;;2.40;1.13;;;;;;;;;;4973944;28;20552;-77
2021/05/09 12:00:12;;;;;;;1.40;0.80;;;;;;;;;;4973561;28;20617;-78
2021/05/09 12:02:44;;;;;;;1.17;1.07;;;;;;;;;;4973471;28;20464;-76
2021/05/09 12:05:11;;;;;;;2.20;1.10;;;;;;;;;;4973369;28;20422;-77
2021/05/09 12:07:45;;;;;;;2.10;1.27;;;;;;;;;;4962978;28;20483;-78
2021/05/09 12:13:14;;;;;;;1.10;1.00;;;;;;;;;;4954303;29;20552;-76
2021/05/09 12:15:43;;;;;;;1.27;0.90;;;;;;;;;;4954046;29;20502;-78
2021/05/09 12:18:09;;;;;;;0.70;0.70;;;;;;;;;;4953939;29;20471;-77
2021/05/09 12:20:44;;;;;;;1.50;1.40;;;;;;;;;;4954080;29;20451;-77
2021/05/09 12:23:31;;;;;;;1.13;1.03;;;;;;;;;;4952479;29;20438;-78
2021/05/09 12:29:17;;;;;;;1.30;1.20;;;;;;;;;;4961417;29;20476;-76
2021/05/09 12:31:43;;;;;;;1.13;1.03;;;;;;;;;;4954307;29;20821;-78
2021/05/09 12:34:10;;;;;;;1.80;1.00;;;;;;;;;;4953782;29;20447;-77
2021/05/09 12:36:36;;;;;;;1.60;0.93;;;;;;;;;;4951961;29;20435;-77
2021/05/09 12:39:17;;;;;;;1.90;0.90;;;;;;;;;;4953068;29;20559;-76
2021/05/09 12:45:06;;;;;;;1.40;1.00;;;;;;;;;;4953244;29;20454;-78
2021/05/09 12:47:32;;;;;;;0.80;0.73;;;;;;;;;;4953511;29;20759;-78
2021/05/09 12:49:59;;;;;;;0.80;0.70;;;;;;;;;;4953230;29;20419;-77
2021/05/09 12:52:28;;;;;;;3.30;1.07;;;;;;;;;;4951494;28;20447;-77
2021/05/09 12:54:54;;;;;;;1.27;1.03;;;;;;;;;;4953449;29;20507;-77
2021/05/09 12:57:29;;;;;;;3.80;0.80;;;;;;;;;;4951302;29;20470;-77
2021/05/09 12:59:57;;;;;;;1.20;1.00;;;;;;;;;;4951761;29;20977;-77
2021/05/09 13:02:25;;;;;;;4.10;1.30;;;;;;;;;;4953527;29;20828;-78
2021/05/09 13:05:00;;;;;;;1.50;1.10;;;;;;;;;;4952345;29;20491;-77
2021/05/09 13:07:31;;;;;;;1.67;1.37;;;;;;;;;;4953003;28;20474;-76
2021/05/09 13:10:00;;;;;;;1.57;1.47;;;;;;;;;;4953047;29;20419;-77
2021/05/09 13:12:26;;;;;;;2.00;0.93;;;;;;;;;;4951855;29;20431;-76
2021/05/09 13:14:59;;;;;;;0.97;0.67;;;;;;;;;;4953585;29;20434;-77
2021/05/09 13:17:25;;;;;;;3.70;0.90;;;;;;;;;;4953066;29;20463;-77
2021/05/09 13:19:55;;;;;;;1.20;1.10;;;;;;;;;;4953523;29;20550;-76
2021/05/09 13:22:24;;;;;;;1.93;1.37;;;;;;;;;;4953299;29;20448;-76
2021/05/09 13:24:57;;;;;;;1.20;1.07;;;;;;;;;;4953237;29;20426;-77
2021/05/09 13:27:23;;;;;;;0.87;0.77;;;;;;;;;;4953505;29;20470;-78
2021/05/09 13:29:49;;;;;;;2.53;1.80;;;;;;;;;;4953623;29;20898;-77
2021/05/09 13:32:18;;;;;;;1.60;0.97;;;;;;;;;;4953314;29;20451;-77
2021/05/09 13:34:45;;;;;;;5.10;4.70;;;;;;;;;;4953173;29;20423;-76
2021/05/09 13:37:11;;;;;;;5.43;5.03;;;;;;;;;;4953339;29;20411;-77
2021/05/09 13:39:37;;;;;;;1.57;1.20;;;;;;;;;;4953318;29;20823;-77
2021/05/09 13:42:03;;;;;;;1.47;1.00;;;;;;;;;;4953194;29;20419;-78
2021/05/09 13:44:29;;;;;;;2.47;1.27;;;;;;;;;;4951577;29;20446;-76
2021/05/09 13:46:55;;;;;;;4.13;0.77;;;;;;;;;;4951438;29;20436;-77
2021/05/09 13:49:22;;;;;;;1.90;1.03;;;;;;;;;;4953541;29;20907;-77
2021/05/09 13:51:53;;;;;;;1.77;1.00;;;;;;;;;;4953474;29;20411;-77
2021/05/09 13:54:20;;;;;;;0.77;0.77;;;;;;;;;;4952715;29;20423;-77
2021/05/09 13:56:50;;;;;;;3.47;1.43;;;;;;;;;;4952791;29;20427;-78
2021/05/09 13:59:16;;;;;;;1.33;0.87;;;;;;;;;;4953063;29;20562;-76
2021/05/09 14:01:42;;;;;;;1.30;0.97;;;;;;;;;;4951658;29;20427;-77
2021/05/09 14:04:10;;;;;;;1.40;1.00;;;;;;;;;;4955317;28;20431;-77
2021/05/09 14:06:36;;;;;;;1.20;1.10;;;;;;;;;;4956387;29;20420;-77
2021/05/09 14:09:03;;;;;;;0.90;0.80;;;;;;;;;;4956181;29;20435;-76
2021/05/09 14:11:29;;;;;;;1.60;0.80;;;;;;;;;;4939501;29;20436;-77
2021/05/09 14:13:59;;;;;;;1.07;0.70;;;;;;;;;;4956314;29;20432;-77
2021/05/09 14:16:26;;;;;;;3.60;0.73;;;;;;;;;;4956350;29;20424;-77
2021/05/09 14:18:52;;;;;;;0.73;0.73;;;;;;;;;;4956571;29;20573;-77
2021/05/09 14:21:18;;;;;;;0.90;0.80;;;;;;;;;;4956046;29;20415;-76
2021/05/09 14:23:44;;;;;;;1.73;1.20;;;;;;;;;;4955992;29;20427;-77
2021/05/09 14:26:10;;;;;;;1.77;1.10;;;;;;;;;;4956070;29;20852;-77
2021/05/09 14:28:36;;;;;;;0.80;0.80;;;;;;;;;;4956191;29;20527;-77
2021/05/09 14:31:02;;;;;;;0.90;0.80;;;;;;;;;;4956009;29;20542;-76
2021/05/09 14:33:28;;;;;;;1.57;1.00;;;;;;;;;;4955931;29;20420;-76
2021/05/09 14:35:54;;;;;;;0.87;0.87;;;;;;;;;;4955784;29;20867;-77
2021/05/09 14:38:20;;;;;;;1.37;1.20;;;;;;;;;;4955766;29;20904;-77
2021/05/09 14:40:46;;;;;;;1.67;1.50;;;;;;;;;;4955964;29;20503;-76
2021/05/09 14:43:13;;;;;;;1.27;1.17;;;;;;;;;;4955639;29;20945;-76
2021/05/09 14:45:39;;;;;;;1.10;1.00;;;;;;;;;;4955614;29;20418;-77
2021/05/09 14:48:05;;;;;;;0.83;0.83;;;;;;;;;;4955590;29;20428;-76
2021/05/09 14:50:31;;;;;;;1.63;1.10;;;;;;;;;;4955581;29;20507;-76
2021/05/09 14:52:58;;;;;;;2.60;2.40;;;;;;;;;;4955507;29;20423;-78
2021/05/09 14:55:25;;;;;;;1.60;1.50;;;;;;;;;;4955748;29;20776;-77
2021/05/09 14:57:51;;;;;;;0.87;0.77;;;;;;;;;;4960983;29;20467;-75
2021/05/09 15:00:18;;;;;;;1.03;0.80;;;;;;;;;;4959059;29;20427;-77
2021/05/09 15:02:44;;;;;;;2.90;2.70;;;;;;;;;;4955719;29;20435;-77
2021/05/09 15:05:10;;;;;;;2.77;1.67;;;;;;;;;;4955604;29;20450;-77
2021/05/09 15:07:36;;;;;;;2.47;1.90;;;;;;;;;;4955235;28;20916;-77
2021/05/09 15:10:03;;;;;;;1.23;1.13;;;;;;;;;;4955404;29;20448;-77
2021/05/09 15:15:33;;;;;;;2.03;1.57;;;;;;;;;;4954966;28;20439;-77
2021/05/09 15:18:00;;;;;;;1.77;1.47;;;;;;;;;;4955143;29;20459;-76
2021/05/09 15:20:27;;;;;;;2.70;2.50;;;;;;;;;;4955503;29;20423;-77
2021/05/09 15:22:53;;;;;;;2.57;2.37;;;;;;;;;;4955048;29;20506;-77
2021/05/09 15:25:19;;;;;;;3.20;2.03;;;;;;;;;;4954726;29;20423;-78
2021/05/09 15:30:49;;;;;;;1.83;1.73;;;;;;;;;;4955185;29;20430;-76
2021/05/09 15:33:15;;;;;;;1.67;1.57;;;;;;;;;;4954791;29;20902;-77
2021/05/09 15:35:41;;;;;;;1.93;1.73;;;;;;;;;;4954950;29;20510;-77
2021/05/09 15:38:07;;;;;;;2.40;1.70;;;;;;;;;;4954231;29;20485;-77
2021/05/09 15:40:34;;;;;;;5.50;4.87;;;;;;;;;;4954554;29;20424;-77
2021/05/09 15:43:00;;;;;;;6.30;5.70;;;;;;;;;;4954612;29;20787;-78
2021/05/09 15:45:26;;;;;;;2.67;1.77;;;;;;;;;;4954624;29;20430;-77
2021/05/09 15:47:52;;;;;;;2.03;1.63;;;;;;;;;;4954739;29;20827;-77
2021/05/09 15:50:18;;;;;;;5.03;1.00;;;;;;;;;;4954483;29;20510;-77
2021/05/09 15:52:46;;;;;;;1.67;1.20;;;;;;;;;;4954447;29;20428;-77
2021/05/09 15:55:12;;;;;;;1.57;0.90;;;;;;;;;;4954553;29;20423;-77
2021/05/09 16:00:41;;;;;;;2.70;1.30;;;;;;;;;;4954360;29;20924;-77
2021/05/09 16:03:07;;;;;;;1.63;1.53;;;;;;;;;;4954200;29;20432;-76
2021/05/09 16:05:33;;;;;;;1.30;1.20;;;;;;;;;;4954142;29;20867;-77
2021/05/09 16:08:01;;;;;;;1.00;0.80;;;;;;;;;;4954195;29;20478;-77
2021/05/09 16:10:27;;;;;;;1.10;1.00;;;;;;;;;;4954251;29;20424;-77
2021/05/09 16:15:56;;;;;;;1.10;1.00;;;;;;;;;;4954101;29;20462;-76
2021/05/09 16:18:22;;;;;;;1.50;0.93;;;;;;;;;;4953937;29;20887;-76
2021/05/09 16:20:49;;;;;;;1.37;0.90;;;;;;;;;;4954070;29;20447;-75
2021/05/09 16:23:15;;;;;;;0.93;0.77;;;;;;;;;;4953836;29;20419;-78
2021/05/09 16:25:41;;;;;;;1.20;1.10;;;;;;;;;;4953655;28;20427;-76
2021/05/09 16:28:07;;;;;;;2.60;1.10;;;;;;;;;;4953950;29;20484;-75
2021/05/09 16:30:33;;;;;;;1.17;1.07;;;;;;;;;;4953784;29;20428;-76
2021/05/09 16:32:59;;;;;;;2.77;1.33;;;;;;;;;;4953778;29;20420;-76
2021/05/09 16:35:25;;;;;;;2.50;1.13;;;;;;;;;;4953773;29;20911;-77
2021/05/09 16:37:51;;;;;;;4.50;1.40;;;;;;;;;;4953115;29;20478;-76
2021/05/09 16:40:19;;;;;;;4.20;3.50;;;;;;;;;;4953572;29;20768;-75
2021/05/09 16:45:48;;;;;;;1.33;0.90;;;;;;;;;;4953693;29;20418;-75
2021/05/09 16:48:17;;;;;;;4.13;1.70;;;;;;;;;;4953452;29;20419;-76
2021/05/09 16:50:43;;;;;;;2.23;1.40;;;;;;;;;;4951946;29;20422;-76
2021/05/09 16:53:15;;;;;;;1.40;1.20;;;;;;;;;;4952107;29;20498;-77